Time;durP1;ratioP1;P1;durP2;ratioP2;P2;SDS_P1;SDS_P2;PMS_P1;PMS_P2;Temp;Humidity;BMP_temperature;BMP_pressure;BME280_temperature;BME280_humidity;BME280_pressure;Samples;Min_cycle;Max_cycle;Signal;HPM_P1;HPM_P2
2022/11/08 00:01:30;;;;;;;2.47;2.27;;;21.30;67.70;;;;;;5004817;28;20470;-81
2022/11/08 00:03:07;;;;;;;2.80;2.13;;;21.30;67.70;;;;;;5022465;28;20482;-81
2022/11/08 00:13:59;;;;;;;2.20;2.00;;;21.30;67.80;;;;;;5029014;28;20455;-81
2022/11/08 00:16:28;;;;;;;1.73;1.63;;;21.30;67.80;;;;;;5027495;28;20799;-81
2022/11/08 00:18:56;;;;;;;2.63;1.83;;;21.30;67.80;;;;;;5028925;28;20456;-81
2022/11/08 00:21:24;;;;;;;3.03;2.33;;;21.30;67.80;;;;;;5028588;28;20469;-81
2022/11/08 00:23:53;;;;;;;2.37;2.17;;;21.30;67.80;;;;;;5023787;28;20844;-81
2022/11/08 00:26:22;;;;;;;2.50;1.87;;;21.30;67.80;;;;;;5018009;28;20443;-81
2022/11/08 00:28:50;;;;;;;2.00;1.90;;;21.30;67.80;;;;;;5017507;28;21134;-81
2022/11/08 00:31:18;;;;;;;1.53;1.43;;;21.30;67.80;;;;;;5018468;28;20447;-81
2022/11/08 00:33:46;;;;;;;2.53;2.30;;;21.30;67.80;;;;;;5020530;28;20542;-81
2022/11/08 00:36:15;;;;;;;1.67;1.57;;;21.30;67.80;;;;;;5024857;28;20448;-81
2022/11/08 00:38:43;;;;;;;2.10;1.67;;;21.30;67.80;;;;;;5028765;28;20470;-81
2022/11/08 00:41:12;;;;;;;1.77;1.67;;;21.30;67.80;;;;;;5021722;28;20459;-81
2022/11/08 00:43:42;;;;;;;2.03;1.90;;;21.30;67.80;;;;;;5019419;28;20947;-81
2022/11/08 00:46:10;;;;;;;2.00;1.80;;;21.20;67.80;;;;;;5020865;28;20473;-81
2022/11/08 00:48:38;;;;;;;1.83;1.73;;;21.20;67.80;;;;;;5025698;28;20477;-81
2022/11/08 00:51:09;;;;;;;2.07;1.97;;;21.20;67.80;;;;;;5023125;28;20466;-81
2022/11/08 00:53:38;;;;;;;2.00;1.90;;;21.30;67.80;;;;;;5028814;28;20812;-81
2022/11/08 00:56:08;;;;;;;3.03;2.13;;;21.20;67.80;;;;;;5019364;28;20487;-81
2022/11/08 00:58:36;;;;;;;1.87;1.67;;;21.20;67.80;;;;;;5025417;28;20813;-81
2022/11/08 01:01:11;;;;;;;2.00;1.90;;;21.20;67.80;;;;;;5030537;28;20458;-81
2022/11/08 01:03:39;;;;;;;2.00;1.90;;;21.20;67.80;;;;;;5033801;28;20518;-81
2022/11/08 01:06:09;;;;;;;3.63;3.33;;;21.20;67.80;;;;;;5027698;28;20454;-81
2022/11/08 01:08:38;;;;;;;2.30;2.20;;;21.20;67.90;;;;;;5023578;28;20464;-81
2022/11/08 01:11:08;;;;;;;2.17;1.57;;;21.20;67.90;;;;;;5018658;28;20546;-81
2022/11/08 01:13:36;;;;;;;2.10;1.90;;;21.20;67.80;;;;;;5033088;28;20462;-81
2022/11/08 01:16:11;;;;;;;1.77;1.67;;;21.20;67.90;;;;;;5024983;28;20444;-81
2022/11/08 01:18:39;;;;;;;2.50;2.30;;;21.20;67.90;;;;;;5027310;28;20468;-81
2022/11/08 01:21:07;;;;;;;2.60;2.23;;;21.20;67.90;;;;;;5032100;28;20465;-81
2022/11/08 01:23:36;;;;;;;2.47;2.27;;;21.20;67.90;;;;;;5024348;28;20463;-81
2022/11/08 01:26:06;;;;;;;2.20;2.00;;;21.20;67.90;;;;;;5019070;28;20469;-81
2022/11/08 01:28:35;;;;;;;1.80;1.70;;;21.20;67.90;;;;;;5023019;28;20458;-81
2022/11/08 01:31:05;;;;;;;1.80;1.70;;;21.20;67.90;;;;;;5028770;28;20812;-81
2022/11/08 01:33:35;;;;;;;2.03;1.90;;;21.20;67.90;;;;;;5033173;28;20832;-81
2022/11/08 01:36:05;;;;;;;1.97;1.87;;;21.20;67.90;;;;;;5024860;28;20827;-81
2022/11/08 01:38:33;;;;;;;2.00;1.90;;;21.20;67.90;;;;;;5032159;28;20459;-81
2022/11/08 01:41:01;;;;;;;2.20;2.00;;;21.20;67.90;;;;;;5020583;28;20523;-81
2022/11/08 01:43:38;;;;;;;2.03;1.93;;;21.10;67.90;;;;;;5021372;28;20524;-81
2022/11/08 01:46:31;;;;;;;2.10;2.00;;;21.10;67.90;;;;;;5017419;28;20977;-81
2022/11/08 01:49:28;;;;;;;2.17;1.97;;;21.10;67.90;;;;;;5030737;28;20953;-81
2022/11/08 01:52:13;;;;;;;2.50;2.40;;;21.10;67.90;;;;;;5025465;28;20537;-81
2022/11/08 01:54:46;;;;;;;1.90;1.73;;;21.10;67.90;;;;;;5006484;28;20456;-81
2022/11/08 01:57:17;;;;;;;2.53;2.33;;;21.10;68.00;;;;;;5020292;28;20458;-81
2022/11/08 01:59:49;;;;;;;1.80;1.70;;;21.10;68.00;;;;;;5032099;28;20459;-81
2022/11/08 02:02:18;;;;;;;2.10;1.97;;;21.10;68.00;;;;;;5017492;28;20455;-81
2022/11/08 02:04:48;;;;;;;2.13;2.03;;;21.10;68.00;;;;;;5026798;28;20589;-81
2022/11/08 02:07:17;;;;;;;2.40;2.20;;;21.10;68.00;;;;;;5018071;28;20458;-81
2022/11/08 02:09:47;;;;;;;2.13;1.90;;;21.10;68.00;;;;;;5026359;28;20463;-81
2022/11/08 02:12:17;;;;;;;1.97;1.77;;;21.10;68.00;;;;;;5026212;28;20446;-81
2022/11/08 02:14:45;;;;;;;2.00;1.90;;;21.10;68.00;;;;;;5022011;28;20798;-81
2022/11/08 02:17:13;;;;;;;1.83;1.73;;;21.10;68.00;;;;;;5025260;28;20449;-81
2022/11/08 02:19:44;;;;;;;2.20;2.10;;;21.10;68.00;;;;;;5021542;28;20483;-81
2022/11/08 02:22:19;;;;;;;1.93;1.77;;;21.10;68.00;;;;;;5015148;28;20906;-81
2022/11/08 02:24:49;;;;;;;3.97;2.27;;;21.10;68.00;;;;;;5026748;28;20474;-81
2022/11/08 02:27:17;;;;;;;1.93;1.77;;;21.10;68.00;;;;;;5023481;28;20448;-81
2022/11/08 02:29:46;;;;;;;2.00;1.90;;;21.10;68.00;;;;;;5023943;28;20870;-81
2022/11/08 02:32:14;;;;;;;1.90;1.80;;;21.10;68.00;;;;;;5023220;28;20458;-81
2022/11/08 02:34:47;;;;;;;2.10;2.00;;;21.10;68.00;;;;;;5016738;28;20454;-81
2022/11/08 02:37:18;;;;;;;2.47;2.17;;;21.10;68.00;;;;;;5014618;28;20558;-81
2022/11/08 02:39:47;;;;;;;2.10;2.00;;;21.10;68.00;;;;;;5022552;28;20451;-81
2022/11/08 02:42:19;;;;;;;1.80;1.70;;;21.00;68.00;;;;;;5027882;28;21023;-81
2022/11/08 02:44:47;;;;;;;1.87;1.77;;;21.00;68.00;;;;;;5025491;28;20489;-81
2022/11/08 02:47:16;;;;;;;1.77;1.67;;;21.10;68.00;;;;;;5025633;28;20501;-81
2022/11/08 02:49:44;;;;;;;1.97;1.87;;;21.00;68.00;;;;;;5031622;28;20888;-81
2022/11/08 02:52:12;;;;;;;2.90;1.77;;;21.00;68.00;;;;;;5028479;28;20451;-81
2022/11/08 02:54:40;;;;;;;1.87;1.77;;;21.00;68.00;;;;;;5018807;28;20800;-81
2022/11/08 02:57:08;;;;;;;1.97;1.87;;;21.00;68.00;;;;;;5024153;28;20794;-81
2022/11/08 02:59:38;;;;;;;1.93;1.80;;;21.00;68.00;;;;;;5029522;28;20464;-81
2022/11/08 03:02:06;;;;;;;2.00;1.90;;;21.00;68.00;;;;;;5025210;28;20447;-81
2022/11/08 03:04:34;;;;;;;1.97;1.87;;;21.00;68.00;;;;;;5031312;28;20455;-81
2022/11/08 03:07:02;;;;;;;1.80;1.70;;;21.00;68.10;;;;;;5025442;28;20514;-81
2022/11/08 03:09:31;;;;;;;2.27;2.17;;;21.00;68.00;;;;;;5027556;28;20470;-81
2022/11/08 03:11:59;;;;;;;1.67;1.57;;;21.00;68.00;;;;;;5014434;28;20463;-81
2022/11/08 03:14:27;;;;;;;2.00;1.90;;;21.00;68.10;;;;;;5020606;28;20450;-81
2022/11/08 03:16:56;;;;;;;1.93;1.83;;;21.00;68.00;;;;;;5021464;28;20457;-81
2022/11/08 03:19:24;;;;;;;2.23;2.03;;;21.00;68.10;;;;;;5024154;28;20803;-81
2022/11/08 03:21:52;;;;;;;1.83;1.73;;;21.00;68.10;;;;;;5028373;28;20462;-81
2022/11/08 03:24:20;;;;;;;1.93;1.80;;;21.00;68.10;;;;;;5021469;28;20928;-81
2022/11/08 03:26:48;;;;;;;2.33;2.13;;;21.00;68.10;;;;;;5017674;28;20480;-81
2022/11/08 03:29:16;;;;;;;1.80;1.70;;;21.00;68.10;;;;;;5026165;28;20465;-81
2022/11/08 03:31:45;;;;;;;2.30;2.10;;;21.00;68.10;;;;;;5023545;28;20485;-81
2022/11/08 03:34:14;;;;;;;2.20;1.93;;;21.00;68.10;;;;;;5023328;28;20477;-81
2022/11/08 03:36:42;;;;;;;2.50;2.30;;;21.00;68.10;;;;;;5018362;28;20463;-81
2022/11/08 03:39:11;;;;;;;1.80;1.70;;;21.00;68.10;;;;;;5029009;28;20475;-81
2022/11/08 03:41:39;;;;;;;1.83;1.73;;;21.00;68.10;;;;;;5021707;28;20458;-81
2022/11/08 03:44:07;;;;;;;2.00;1.90;;;21.00;68.10;;;;;;5022960;28;20448;-81
2022/11/08 03:46:35;;;;;;;2.13;2.03;;;21.00;68.10;;;;;;5017441;28;20511;-81
2022/11/08 03:49:03;;;;;;;1.80;1.70;;;21.00;68.10;;;;;;5025481;28;20454;-81
2022/11/08 03:51:32;;;;;;;2.00;1.90;;;21.00;68.10;;;;;;5029719;28;20451;-81
2022/11/08 03:54:00;;;;;;;2.10;2.00;;;20.90;68.20;;;;;;5027243;28;20462;-81
2022/11/08 03:56:29;;;;;;;1.77;1.67;;;20.90;68.20;;;;;;5024194;28;20825;-81
2022/11/08 03:58:57;;;;;;;1.90;1.80;;;20.90;68.20;;;;;;5019253;28;20459;-81
2022/11/08 04:01:25;;;;;;;1.60;1.50;;;20.90;68.20;;;;;;5015408;28;20458;-81
2022/11/08 04:03:53;;;;;;;2.03;1.93;;;20.90;68.20;;;;;;5029504;28;20799;-81
2022/11/08 04:06:21;;;;;;;2.13;2.03;;;20.90;68.20;;;;;;5020182;28;20504;-81
2022/11/08 04:08:51;;;;;;;2.30;2.10;;;20.90;68.20;;;;;;5019424;28;20446;-81
2022/11/08 04:16:50;;;;;;;1.77;1.67;;;20.90;68.20;;;;;;5018164;28;20462;-81
2022/11/08 04:22:06;;;;;;;1.73;1.63;;;20.90;68.20;;;;;;5015855;28;20450;-81
2022/11/08 04:24:35;;;;;;;1.87;1.77;;;20.90;68.30;;;;;;5019796;28;20802;-81
2022/11/08 04:27:03;;;;;;;1.90;1.80;;;20.90;68.30;;;;;;5022305;28;20474;-81
2022/11/08 04:29:31;;;;;;;1.73;1.63;;;20.90;68.30;;;;;;5033688;28;20461;-81
2022/11/08 04:32:00;;;;;;;1.63;1.53;;;20.90;68.30;;;;;;5034292;28;20441;-81
2022/11/08 04:34:28;;;;;;;1.43;1.43;;;20.90;68.30;;;;;;5027161;28;20505;-81
2022/11/08 04:36:56;;;;;;;2.30;2.13;;;20.90;68.30;;;;;;5034507;28;20452;-81
2022/11/08 04:39:24;;;;;;;1.70;1.60;;;20.90;68.20;;;;;;5033033;28;20470;-81
2022/11/08 04:41:53;;;;;;;2.20;2.00;;;20.90;68.20;;;;;;5030926;28;20457;-81
2022/11/08 04:44:28;;;;;;;2.27;2.07;;;20.90;68.30;;;;;;5027640;28;20622;-81
2022/11/08 04:46:57;;;;;;;2.07;1.83;;;20.90;68.30;;;;;;5031175;28;20502;-81
2022/11/08 04:49:25;;;;;;;1.80;1.70;;;20.90;68.30;;;;;;5033945;28;20965;-81
2022/11/08 04:51:53;;;;;;;1.93;1.83;;;20.90;68.30;;;;;;5024821;28;20949;-81
2022/11/08 04:54:22;;;;;;;1.90;1.80;;;20.90;68.30;;;;;;5031177;28;20450;-81
2022/11/08 04:56:50;;;;;;;1.83;1.70;;;20.80;68.30;;;;;;5022745;28;20459;-81
2022/11/08 04:59:19;;;;;;;2.07;1.97;;;20.80;68.30;;;;;;5031298;28;20456;-81
2022/11/08 05:01:47;;;;;;;2.50;2.30;;;20.80;68.30;;;;;;5029903;28;20808;-81
2022/11/08 05:04:16;;;;;;;2.00;1.90;;;20.80;68.30;;;;;;5030527;28;20459;-81
2022/11/08 05:06:44;;;;;;;1.70;1.60;;;20.80;68.30;;;;;;5027806;28;20469;-81
2022/11/08 05:09:12;;;;;;;1.90;1.80;;;20.80;68.30;;;;;;5029336;28;20461;-81
2022/11/08 05:11:40;;;;;;;1.93;1.83;;;20.80;68.30;;;;;;5031600;28;20453;-81
2022/11/08 05:14:08;;;;;;;1.70;1.60;;;20.80;68.30;;;;;;5028530;28;20453;-81
2022/11/08 05:16:38;;;;;;;1.53;1.43;;;20.80;68.30;;;;;;5030453;28;20453;-81
2022/11/08 05:19:06;;;;;;;2.40;2.20;;;20.80;68.30;;;;;;5029469;28;20459;-81
2022/11/08 05:24:25;;;;;;;1.50;1.40;;;20.80;68.30;;;;;;5031354;28;20456;-81
2022/11/08 05:26:53;;;;;;;2.57;2.37;;;20.80;68.30;;;;;;5030835;28;20482;-81
2022/11/08 05:29:21;;;;;;;1.93;1.83;;;20.80;68.30;;;;;;5028944;28;20791;-81
2022/11/08 05:31:51;;;;;;;1.83;1.73;;;20.80;68.30;;;;;;5029747;28;20458;-81
2022/11/08 05:34:19;;;;;;;1.60;1.50;;;20.80;68.30;;;;;;5029621;28;20593;-81
2022/11/08 05:36:47;;;;;;;1.80;1.70;;;20.80;68.30;;;;;;5020246;28;20458;-81
2022/11/08 05:39:15;;;;;;;1.90;1.80;;;20.80;68.30;;;;;;5027813;28;20470;-81
2022/11/08 05:41:43;;;;;;;2.00;1.90;;;20.80;68.30;;;;;;5033033;28;20451;-81
2022/11/08 05:44:11;;;;;;;2.30;2.10;;;20.80;68.30;;;;;;5025284;28;20517;-81
2022/11/08 05:46:39;;;;;;;1.87;1.77;;;20.80;68.30;;;;;;5027918;28;20495;-81
2022/11/08 05:49:09;;;;;;;1.80;1.70;;;20.80;68.30;;;;;;5030710;28;20462;-81
2022/11/08 05:51:37;;;;;;;2.20;2.07;;;20.80;68.30;;;;;;5028420;28;20456;-80
2022/11/08 05:54:06;;;;;;;2.00;1.90;;;20.80;68.30;;;;;;5025941;28;20471;-81
2022/11/08 05:56:35;;;;;;;1.67;1.57;;;20.80;68.30;;;;;;5030478;28;20493;-81
2022/11/08 05:59:03;;;;;;;1.60;1.50;;;20.80;68.40;;;;;;5030880;28;20464;-81
2022/11/08 06:01:31;;;;;;;1.63;1.53;;;20.80;68.30;;;;;;5029103;28;20471;-81
2022/11/08 06:04:00;;;;;;;1.60;1.50;;;20.80;68.40;;;;;;5030212;28;20459;-81
2022/11/08 06:06:29;;;;;;;2.00;1.90;;;20.70;68.40;;;;;;5028637;28;20489;-81
2022/11/08 06:08:57;;;;;;;1.97;1.87;;;20.70;68.40;;;;;;5031429;28;20458;-82
2022/11/08 06:11:27;;;;;;;2.10;2.00;;;20.70;68.40;;;;;;5031836;28;21055;-79
2022/11/08 06:13:55;;;;;;;1.97;1.87;;;20.70;68.40;;;;;;5027322;28;20475;-79
2022/11/08 06:16:24;;;;;;;1.90;1.80;;;20.70;68.40;;;;;;5021921;28;20467;-80
2022/11/08 06:18:53;;;;;;;1.80;1.70;;;20.70;68.40;;;;;;5023595;28;20466;-80
2022/11/08 06:21:22;;;;;;;1.90;1.80;;;20.70;68.40;;;;;;5028276;28;20482;-80
2022/11/08 06:23:53;;;;;;;1.60;1.50;;;20.70;68.40;;;;;;5029153;28;20457;-80
2022/11/08 06:26:22;;;;;;;4.30;1.80;;;20.70;68.40;;;;;;5021621;28;20457;-81
2022/11/08 06:28:51;;;;;;;1.93;1.83;;;20.70;68.40;;;;;;5017718;28;20462;-80
2022/11/08 06:31:19;;;;;;;1.97;1.67;;;20.70;68.40;;;;;;5026466;28;20446;-80
2022/11/08 06:33:47;;;;;;;2.00;1.90;;;20.70;68.40;;;;;;5026740;28;20471;-80
2022/11/08 06:36:15;;;;;;;2.00;1.87;;;20.70;68.40;;;;;;5028562;28;20469;-80
2022/11/08 06:38:43;;;;;;;1.60;1.50;;;20.70;68.40;;;;;;5027747;28;20922;-80
2022/11/08 06:41:18;;;;;;;2.00;1.90;;;20.70;68.40;;;;;;5031323;28;20454;-80
2022/11/08 06:43:46;;;;;;;1.90;1.80;;;20.70;68.40;;;;;;5025837;28;20452;-80
2022/11/08 06:46:14;;;;;;;1.97;1.87;;;20.70;68.40;;;;;;5025801;28;20532;-80
2022/11/08 06:48:42;;;;;;;1.73;1.63;;;20.70;68.30;;;;;;5027418;28;20537;-80
2022/11/08 06:51:10;;;;;;;1.73;1.63;;;20.70;68.40;;;;;;5025603;28;20995;-81
2022/11/08 06:53:38;;;;;;;2.03;1.93;;;20.70;68.40;;;;;;5026950;28;20985;-84
2022/11/08 06:56:07;;;;;;;2.10;2.00;;;20.70;68.40;;;;;;5027668;28;20547;-80
2022/11/08 06:58:37;;;;;;;2.07;1.97;;;20.70;68.30;;;;;;5026504;28;20466;-77
2022/11/08 07:01:07;;;;;;;2.03;1.77;;;20.70;68.30;;;;;;5029470;28;20455;-77
2022/11/08 07:03:35;;;;;;;2.37;1.97;;;20.70;68.30;;;;;;5028590;28;20533;-77
2022/11/08 07:06:04;;;;;;;1.70;1.60;;;20.70;68.30;;;;;;5027723;28;20485;-78
2022/11/08 07:08:33;;;;;;;1.93;1.83;;;20.70;68.40;;;;;;5028268;28;20477;-77
2022/11/08 07:11:02;;;;;;;1.87;1.77;;;20.70;68.30;;;;;;5029439;28;20854;-77
2022/11/08 07:13:30;;;;;;;1.73;1.63;;;20.70;68.30;;;;;;5026792;28;20516;-77
2022/11/08 07:16:01;;;;;;;1.97;1.87;;;20.70;68.30;;;;;;5026124;28;20449;-78
2022/11/08 07:18:29;;;;;;;1.70;1.60;;;20.70;68.30;;;;;;5001952;28;20477;-80
2022/11/08 07:21:01;;;;;;;5.80;3.97;;;20.80;68.30;;;;;;5025442;28;20843;-81
2022/11/08 07:23:30;;;;;;;3.23;2.93;;;20.80;67.70;;;;;;5030054;28;20457;-80
2022/11/08 07:26:02;;;;;;;5.80;3.53;;;20.80;68.00;;;;;;5025722;28;20462;-79
2022/11/08 07:28:31;;;;;;;4.67;4.27;;;20.80;67.80;;;;;;5019809;28;20466;-79
2022/11/08 07:31:02;;;;;;;7.57;4.73;;;20.90;67.30;;;;;;5027108;28;20471;-79
2022/11/08 07:33:31;;;;;;;5.40;4.63;;;20.90;66.80;;;;;;5028339;28;20511;-78
2022/11/08 07:35:59;;;;;;;5.57;4.50;;;20.90;66.60;;;;;;5025309;28;20462;-79
2022/11/08 07:38:27;;;;;;;5.70;4.67;;;21.00;66.20;;;;;;5025925;28;20443;-79
2022/11/08 07:40:56;;;;;;;6.60;4.93;;;21.00;65.90;;;;;;5028661;28;20456;-79
2022/11/08 07:43:25;;;;;;;8.70;6.17;;;21.00;65.80;;;;;;5025590;28;20450;-79
2022/11/08 07:45:58;;;;;;;5.87;5.17;;;21.10;65.40;;;;;;5008576;28;20490;-79
2022/11/08 07:48:29;;;;;;;7.73;5.67;;;21.10;65.40;;;;;;5006984;28;20479;-79
2022/11/08 07:50:57;;;;;;;8.30;6.10;;;21.10;65.20;;;;;;5003842;28;20801;-79
2022/11/08 07:53:25;;;;;;;5.97;4.83;;;21.10;64.90;;;;;;5007428;28;20444;-79
2022/11/08 07:55:54;;;;;;;7.63;5.50;;;21.10;64.80;;;;;;5002822;28;20463;-79
2022/11/08 07:58:22;;;;;;;7.10;5.87;;;21.20;64.90;;;;;;5006374;28;20506;-80
2022/11/08 08:00:50;;;;;;;6.97;5.43;;;21.20;65.30;;;;;;5008703;28;20515;-79
2022/11/08 08:03:18;;;;;;;6.07;5.47;;;21.20;65.60;;;;;;5005234;28;20456;-80
2022/11/08 08:05:53;;;;;;;5.70;5.20;;;21.20;65.80;;;;;;5007116;28;20479;-80
2022/11/08 08:08:28;;;;;;;5.93;5.43;;;21.20;65.90;;;;;;5005439;28;20481;-80
2022/11/08 08:11:00;;;;;;;7.03;5.33;;;21.20;66.10;;;;;;5008664;28;20464;-80
2022/11/08 08:13:29;;;;;;;6.73;4.70;;;21.20;66.10;;;;;;5006552;28;20454;-81
2022/11/08 08:15:59;;;;;;;5.60;4.93;;;21.20;66.30;;;;;;5010410;28;20448;-80
2022/11/08 08:18:28;;;;;;;6.37;4.97;;;21.30;66.30;;;;;;5004330;28;20538;-80
2022/11/08 08:20:58;;;;;;;6.47;5.97;;;21.30;66.40;;;;;;5009732;28;20446;-79
2022/11/08 08:23:26;;;;;;;6.73;4.90;;;21.30;66.40;;;;;;4998122;28;20459;-79
2022/11/08 08:25:54;;;;;;;5.07;4.57;;;21.30;66.50;;;;;;5007705;28;20491;-80
2022/11/08 08:28:23;;;;;;;6.10;5.50;;;21.30;66.50;;;;;;5009090;28;21048;-80
2022/11/08 08:30:51;;;;;;;5.70;5.20;;;21.30;66.50;;;;;;5010838;28;20470;-80
2022/11/08 08:33:19;;;;;;;5.93;5.37;;;21.30;66.60;;;;;;5017559;28;20467;-80
2022/11/08 08:36:00;;;;;;;6.10;5.50;;;21.40;66.50;;;;;;5001829;28;20452;-81
2022/11/08 08:38:29;;;;;;;10.10;6.00;;;21.40;66.50;;;;;;5006673;28;20449;-80
2022/11/08 08:40:57;;;;;;;6.43;5.70;;;21.40;66.50;;;;;;5004854;28;20450;-81
2022/11/08 08:43:27;;;;;;;5.90;4.80;;;21.40;66.50;;;;;;5006059;28;20480;-80
2022/11/08 08:45:58;;;;;;;4.90;4.50;;;21.40;66.50;;;;;;4998563;28;20503;-80
2022/11/08 08:48:26;;;;;;;5.87;5.33;;;21.40;66.50;;;;;;5009413;28;20472;-78
2022/11/08 08:50:54;;;;;;;7.17;5.10;;;21.50;66.50;;;;;;5005272;28;20464;-79
2022/11/08 08:53:24;;;;;;;5.20;4.63;;;21.50;66.60;;;;;;5005446;28;20460;-78
2022/11/08 08:55:52;;;;;;;5.27;4.40;;;21.50;66.60;;;;;;5004460;28;21228;-78
2022/11/08 08:58:21;;;;;;;6.57;4.93;;;21.50;66.60;;;;;;5005288;28;20931;-79
2022/11/08 09:00:49;;;;;;;4.93;4.40;;;21.50;66.60;;;;;;5003746;28;20464;-78
2022/11/08 09:03:37;;;;;;;5.70;5.17;;;21.50;66.60;;;;;;5005429;28;20464;-79
2022/11/08 09:06:06;;;;;;;6.17;5.60;;;21.50;66.60;;;;;;5005330;28;20484;-81
2022/11/08 09:08:35;;;;;;;6.93;4.90;;;21.50;66.60;;;;;;5002586;28;20474;-79
2022/11/08 09:11:04;;;;;;;6.07;5.50;;;21.50;66.60;;;;;;5001924;28;20459;-79
2022/11/08 09:13:32;;;;;;;6.50;5.70;;;21.60;66.60;;;;;;5001822;28;20441;-79
2022/11/08 09:16:02;;;;;;;5.50;5.00;;;21.60;66.50;;;;;;5008150;28;20449;-79
2022/11/08 09:18:31;;;;;;;5.63;5.20;;;21.60;66.50;;;;;;5027504;28;20562;-79
2022/11/08 09:21:00;;;;;;;5.57;5.07;;;21.60;66.50;;;;;;5012087;28;21284;-82
2022/11/08 09:23:28;;;;;;;5.53;4.90;;;21.60;66.50;;;;;;5013095;28;20464;-83
2022/11/08 09:25:58;;;;;;;5.93;5.33;;;21.60;66.50;;;;;;5005461;28;20458;-82
2022/11/08 09:28:26;;;;;;;6.40;4.80;;;21.60;66.50;;;;;;4997818;28;20512;-79
2022/11/08 09:31:01;;;;;;;5.03;4.53;;;21.70;66.40;;;;;;5010112;28;21053;-79
2022/11/08 09:33:29;;;;;;;5.33;4.83;;;21.70;66.40;;;;;;5003421;28;20457;-81
2022/11/08 09:35:59;;;;;;;7.43;5.10;;;21.70;66.40;;;;;;5003937;28;20472;-81
2022/11/08 09:38:27;;;;;;;11.10;5.70;;;21.70;66.50;;;;;;5010239;28;20471;-83
2022/11/08 09:41:11;;;;;;;8.60;5.37;;;21.70;66.10;;;;;;5008935;28;20479;-80
2022/11/08 09:44:02;;;;;;;12.10;6.37;;;21.70;65.60;;;;;;5006890;28;20494;-79
2022/11/08 09:46:39;;;;;;;6.43;5.83;;;21.70;65.30;;;;;;5007168;28;20499;-79
2022/11/08 09:49:16;;;;;;;10.20;6.03;;;21.70;65.30;;;;;;5024889;28;20471;-80
2022/11/08 09:51:44;;;;;;;6.93;5.47;;;21.70;65.20;;;;;;5025077;28;20453;-80
2022/11/08 09:54:20;;;;;;;8.53;6.80;;;21.80;65.00;;;;;;5021755;28;20468;-80
2022/11/08 09:56:53;;;;;;;8.00;7.00;;;21.80;64.80;;;;;;5029160;28;20450;-79
2022/11/08 09:59:33;;;;;;;7.60;6.47;;;21.80;64.50;;;;;;5023617;28;20482;-80
2022/11/08 10:02:01;;;;;;;7.70;6.30;;;21.80;64.60;;;;;;5025717;28;20924;-79
2022/11/08 10:04:32;;;;;;;6.73;6.10;;;21.80;64.60;;;;;;5028674;28;20954;-77
2022/11/08 10:07:16;;;;;;;6.83;5.53;;;21.80;64.60;;;;;;5031489;28;20810;-81
2022/11/08 10:10:03;;;;;;;7.17;6.10;;;21.90;64.50;;;;;;5032459;28;20504;-78
2022/11/08 10:12:41;;;;;;;9.40;6.03;;;21.90;64.20;;;;;;5021127;28;20471;-79
2022/11/08 10:15:24;;;;;;;7.20;6.30;;;22.00;64.10;;;;;;5032140;28;20554;-79
2022/11/08 10:18:15;;;;;;;7.10;6.40;;;22.00;64.00;;;;;;5024446;28;21755;-79
2022/11/08 10:20:59;;;;;;;7.17;6.57;;;22.00;63.90;;;;;;5025804;28;20459;-78
2022/11/08 10:23:39;;;;;;;7.20;6.33;;;22.00;63.90;;;;;;5022717;28;20445;-78
2022/11/08 10:26:14;;;;;;;5.73;5.33;;;22.10;63.80;;;;;;5024405;28;20460;-79
2022/11/08 10:28:49;;;;;;;6.87;6.27;;;22.10;63.60;;;;;;5025882;28;20476;-79
2022/11/08 10:31:19;;;;;;;6.43;5.77;;;22.20;63.60;;;;;;5018461;28;20507;-78
2022/11/08 10:33:52;;;;;;;6.80;5.80;;;22.20;63.50;;;;;;5024373;28;20454;-80
2022/11/08 10:36:27;;;;;;;6.90;6.20;;;22.20;63.50;;;;;;5020172;28;20454;-81
2022/11/08 10:39:01;;;;;;;5.83;5.23;;;22.20;63.50;;;;;;5018490;28;20437;-82
2022/11/08 10:41:38;;;;;;;13.00;6.10;;;22.20;63.70;;;;;;5024281;28;20929;-82
2022/11/08 10:44:14;;;;;;;6.67;5.70;;;22.20;63.50;;;;;;5024199;28;20444;-82
2022/11/08 10:46:44;;;;;;;6.00;5.40;;;22.10;63.50;;;;;;5018788;28;20848;-82
2022/11/08 10:49:16;;;;;;;6.33;5.80;;;22.10;63.50;;;;;;5025142;28;21162;-81
2022/11/08 10:51:46;;;;;;;5.73;5.20;;;22.10;63.40;;;;;;5030286;28;20471;-83
2022/11/08 10:54:42;;;;;;;5.50;5.00;;;22.10;63.50;;;;;;5033739;28;20908;-82
2022/11/08 10:57:12;;;;;;;5.47;4.97;;;22.10;63.40;;;;;;5033907;28;20934;-81
2022/11/08 10:59:42;;;;;;;6.13;4.90;;;22.10;63.50;;;;;;5030566;28;20452;-81
2022/11/08 11:02:22;;;;;;;6.20;4.87;;;22.20;63.50;;;;;;5029863;28;20448;-82
2022/11/08 11:04:51;;;;;;;4.93;4.53;;;22.20;63.30;;;;;;5032608;28;20449;-82
2022/11/08 11:07:29;;;;;;;6.00;5.50;;;22.30;63.30;;;;;;5031357;28;20471;-81
2022/11/08 11:09:58;;;;;;;5.57;5.10;;;22.40;63.10;;;;;;5026740;28;20522;-82
2022/11/08 11:12:26;;;;;;;5.50;4.97;;;22.50;62.80;;;;;;5027059;28;20467;-81
2022/11/08 11:14:58;;;;;;;6.70;5.60;;;22.60;62.60;;;;;;5031133;28;20468;-83
2022/11/08 11:17:31;;;;;;;5.40;5.00;;;22.70;62.50;;;;;;5026729;28;21010;-83
2022/11/08 11:20:18;;;;;;;5.40;4.97;;;22.90;62.50;;;;;;5027044;28;20976;-83
2022/11/08 11:22:46;;;;;;;5.40;4.90;;;23.00;62.10;;;;;;5025011;28;20564;-82
2022/11/08 11:25:17;;;;;;;5.70;4.93;;;23.20;61.90;;;;;;5023728;28;20468;-81
2022/11/08 11:27:52;;;;;;;4.90;4.50;;;23.30;61.40;;;;;;5022980;28;20443;-82
2022/11/08 11:30:27;;;;;;;4.70;4.33;;;23.40;60.90;;;;;;5022638;28;20485;-81
2022/11/08 11:33:04;;;;;;;5.40;4.90;;;23.50;60.40;;;;;;5029448;28;20552;-82
2022/11/08 11:35:44;;;;;;;5.10;4.70;;;23.60;60.20;;;;;;5020058;28;20939;-81
2022/11/08 11:38:22;;;;;;;4.13;3.73;;;23.50;60.20;;;;;;5025735;28;20451;-82
2022/11/08 11:40:53;;;;;;;4.93;4.53;;;23.50;60.30;;;;;;5029160;28;20778;-81
2022/11/08 11:43:27;;;;;;;6.23;4.63;;;23.40;60.30;;;;;;5016299;28;20456;-81
2022/11/08 11:46:01;;;;;;;4.83;4.50;;;23.40;60.40;;;;;;5019596;28;20482;-82
2022/11/08 11:48:30;;;;;;;4.80;4.10;;;23.30;60.40;;;;;;5022432;28;20454;-81
2022/11/08 11:50:59;;;;;;;3.97;3.67;;;23.30;60.40;;;;;;5024323;28;20483;-81
2022/11/08 11:53:31;;;;;;;3.97;3.67;;;23.30;60.60;;;;;;5021121;28;20450;-81
2022/11/08 11:56:26;;;;;;;5.73;4.33;;;23.20;60.70;;;;;;5021545;28;20455;-81
2022/11/08 11:59:24;;;;;;;4.60;4.20;;;23.10;60.80;;;;;;5024960;28;20461;-81
2022/11/08 12:02:28;;;;;;;3.77;3.47;;;23.10;60.80;;;;;;5025891;28;20567;-81
2022/11/08 12:05:13;;;;;;;4.40;4.03;;;23.20;60.90;;;;;;5023974;28;20454;-83
2022/11/08 12:07:49;;;;;;;4.17;3.87;;;23.30;60.60;;;;;;5025964;28;20871;-83
2022/11/08 12:10:26;;;;;;;4.10;3.77;;;23.30;60.50;;;;;;5020845;28;20475;-80
2022/11/08 12:13:02;;;;;;;4.40;4.07;;;23.20;60.60;;;;;;5025267;28;20920;-81
2022/11/08 12:15:38;;;;;;;5.30;3.90;;;23.20;60.70;;;;;;5026955;28;20450;-80
2022/11/08 12:18:27;;;;;;;4.17;3.77;;;23.20;60.70;;;;;;5025068;28;20456;-79
2022/11/08 12:21:13;;;;;;;4.07;3.77;;;23.20;60.60;;;;;;5019820;28;20547;-81
2022/11/08 12:24:03;;;;;;;4.60;4.20;;;23.20;60.60;;;;;;5025489;28;20977;-80
2022/11/08 12:26:37;;;;;;;4.20;3.60;;;23.20;60.80;;;;;;5022176;28;20455;-79
2022/11/08 12:29:23;;;;;;;3.67;3.37;;;23.20;60.80;;;;;;5022047;28;20459;-79
2022/11/08 12:32:05;;;;;;;5.57;3.97;;;23.10;61.00;;;;;;5014520;28;20547;-82
2022/11/08 12:34:48;;;;;;;3.70;3.10;;;23.10;61.10;;;;;;5021769;28;20461;-80
2022/11/08 12:37:23;;;;;;;4.70;3.57;;;23.00;61.40;;;;;;5020866;28;20476;-80
2022/11/08 12:39:59;;;;;;;4.70;3.40;;;23.00;61.80;;;;;;5023586;28;21497;-80
2022/11/08 12:42:59;;;;;;;4.00;3.33;;;23.00;62.10;;;;;;5019791;28;20491;-81
2022/11/08 12:45:46;;;;;;;3.83;3.40;;;22.90;62.30;;;;;;5024668;28;20944;-81
2022/11/08 12:48:26;;;;;;;7.63;3.73;;;22.90;62.40;;;;;;5029956;28;20502;-80
2022/11/08 12:51:01;;;;;;;3.97;3.67;;;22.90;62.60;;;;;;5027791;28;20836;-80
2022/11/08 12:53:41;;;;;;;3.83;3.40;;;22.90;62.50;;;;;;5030563;28;20573;-80
2022/11/08 12:56:14;;;;;;;5.87;3.00;;;22.90;62.30;;;;;;5026620;28;20456;-80
2022/11/08 12:58:45;;;;;;;4.30;4.00;;;22.90;62.10;;;;;;5029535;28;20463;-80
2022/11/08 13:01:15;;;;;;;3.10;2.90;;;22.90;62.40;;;;;;5028923;28;21398;-80
2022/11/08 13:04:20;;;;;;;3.40;3.20;;;22.90;62.00;;;;;;5028328;28;20496;-80
2022/11/08 13:06:57;;;;;;;3.43;3.13;;;22.80;62.10;;;;;;5028909;28;20460;-80
2022/11/08 13:09:36;;;;;;;3.50;3.20;;;22.80;61.80;;;;;;5023940;28;20461;-80
2022/11/08 13:12:15;;;;;;;3.00;2.80;;;22.80;61.70;;;;;;5028614;28;20529;-80
2022/11/08 13:14:44;;;;;;;2.70;2.50;;;22.80;61.70;;;;;;5025207;28;20500;-80
2022/11/08 13:17:18;;;;;;;5.07;3.33;;;22.70;61.70;;;;;;5026865;28;20476;-80
2022/11/08 13:19:55;;;;;;;2.40;2.20;;;22.70;61.80;;;;;;5025648;28;20474;-83
2022/11/08 13:23:00;;;;;;;3.57;3.27;;;22.70;62.00;;;;;;5027088;28;20542;-81
2022/11/08 13:25:35;;;;;;;2.77;2.57;;;22.60;62.40;;;;;;5024707;28;20923;-80
2022/11/08 13:28:35;;;;;;;8.00;3.70;;;22.60;62.70;;;;;;5028290;28;20473;-80